Map

Track Data

SID SEASON NUMBER BASIN SUBBASIN NAME ISO_TIME NATURE LAT LON WMO_WIND WMO_PRES WMO_AGENCY TRACK_TYPE DIST2LAND LANDFALL IFLAG USA_AGENCY USA_ATCF_ID USA_LAT USA_LON USA_RECORD USA_STATUS USA_WIND USA_PRES USA_SSHS USA_R34_NE USA_R34_SE USA_R34_SW USA_R34_NW USA_R50_NE USA_R50_SE USA_R50_SW USA_R50_NW USA_R64_NE USA_R64_SE USA_R64_SW USA_R64_NW USA_POCI USA_ROCI USA_RMW USA_EYE TOKYO_LAT TOKYO_LON TOKYO_GRADE TOKYO_WIND TOKYO_PRES TOKYO_R50_DIR TOKYO_R50_LONG TOKYO_R50_SHORT TOKYO_R30_DIR TOKYO_R30_LONG TOKYO_R30_SHORT TOKYO_LAND CMA_LAT CMA_LON CMA_CAT CMA_WIND CMA_PRES HKO_LAT HKO_LON HKO_CAT HKO_WIND HKO_PRES NEWDELHI_LAT NEWDELHI_LON NEWDELHI_GRADE NEWDELHI_WIND NEWDELHI_PRES NEWDELHI_CI NEWDELHI_DP NEWDELHI_POCI REUNION_LAT REUNION_LON REUNION_TYPE REUNION_WIND REUNION_PRES REUNION_TNUM REUNION_CI REUNION_RMW REUNION_R34_NE REUNION_R34_SE REUNION_R34_SW REUNION_R34_NW REUNION_R50_NE REUNION_R50_SE REUNION_R50_SW REUNION_R50_NW REUNION_R64_NE REUNION_R64_SE REUNION_R64_SW REUNION_R64_NW BOM_LAT BOM_LON BOM_TYPE BOM_WIND BOM_PRES BOM_TNUM BOM_CI BOM_RMW BOM_R34_NE BOM_R34_SE BOM_R34_SW BOM_R34_NW BOM_R50_NE BOM_R50_SE BOM_R50_SW BOM_R50_NW BOM_R64_NE BOM_R64_SE BOM_R64_SW BOM_R64_NW BOM_ROCI BOM_POCI BOM_EYE BOM_POS_METHOD BOM_PRES_METHOD NADI_LAT NADI_LON NADI_CAT NADI_WIND NADI_PRES WELLINGTON_LAT WELLINGTON_LON WELLINGTON_WIND WELLINGTON_PRES DS824_LAT DS824_LON DS824_STAGE DS824_WIND DS824_PRES TD9636_LAT TD9636_LON TD9636_STAGE TD9636_WIND TD9636_PRES TD9635_LAT TD9635_LON TD9635_WIND TD9635_PRES TD9635_ROCI NEUMANN_LAT NEUMANN_LON NEUMANN_CLASS NEUMANN_WIND NEUMANN_PRES MLC_LAT MLC_LON MLC_CLASS MLC_WIND MLC_PRES USA_GUST BOM_GUST BOM_GUST_PER REUNION_GUST REUNION_GUST_PER USA_SEAHGT USA_SEARAD_NE USA_SEARAD_SE USA_SEARAD_SW USA_SEARAD_NW STORM_SPEED STORM_DIR
1956150N22090 1956 41 NI BB NOT_NAMED 1956-05-28 18:00:00 TS 21.5000 89.9000 main 35 33 O________O____ jtwc_io IO031956 21.5000 89.9000 -1 21.5000 89.9000 TC 3 270
1956150N22090 1956 41 NI BB NOT_NAMED 1956-05-28 21:00:00 TS 21.5001 89.7350 main 33 30 P________P____ IO031956 21.5001 89.7350 -1 21.5001 89.7350 TC 3 270
1956150N22090 1956 41 NI BB NOT_NAMED 1956-05-29 00:00:00 TS 21.5000 89.6000 main 30 24 O________O____ jtwc_io IO031956 21.5000 89.6000 -1 21.5000 89.6000 TC 35 2 270
1956150N22090 1956 41 NI BB NOT_NAMED 1956-05-29 03:00:00 TS 21.4999 89.5067 main 24 22 P________PO___ IO031956 21.4999 89.5075 -1 21.4999 89.5075 TC 35 21.5000 89.5000 2 2 270
1956150N22090 1956 41 NI BB NOT_NAMED 1956-05-29 06:00:00 TS 21.4985 89.3887 main 22 15 O________OP___ jtwc_io IO031956 21.5000 89.4000 -1 21.5000 89.4000 TC 35 21.4923 89.3437 2 3 269
1956150N22090 1956 41 NI BB NOT_NAMED 1956-05-29 09:00:00 TS 21.4967 89.1973 main 15 11 P________PP___ IO031956 21.5001 89.2000 -1 21.5001 89.2000 TC 35 21.4876 89.1899 2 3 270
1956150N22090 1956 41 NI BB NOT_NAMED 1956-05-29 12:00:00 TS 21.4964 89.0137 main 11 11 O________OP___ jtwc_io IO031956 21.5000 89.0000 -1 21.5000 89.0000 TC 35 21.4891 89.0412 2 3 270
1956150N22090 1956 41 NI BB NOT_NAMED 1956-05-29 15:00:00 TS 21.4950 88.8950 main 11 11 P________PO___ IO031956 21.4924 88.8925 -1 21.4924 88.8925 TC 35 21.5000 88.9000 3 2 273
1956150N22090 1956 41 NI BB NOT_NAMED 1956-05-29 18:00:00 TS 21.5073 88.7898 main 15 15 O________OP___ jtwc_io IO031956 21.5000 88.8000 -1 21.5000 88.8000 TC 35 21.5219 88.7694 3 2 283
1956150N22090 1956 41 NI BB NOT_NAMED 1956-05-29 21:00:00 TS 21.5500 88.6417 main 10 0 P________PP___ IO031956 21.5500 88.6350 -1 21.5500 88.6350 TC 50 21.5500 88.6551 3 3 289
1956150N22090 1956 41 NI BB NOT_NAMED 1956-05-30 00:00:00 TS 21.5927 88.5211 main 0 0 O________OP___ jtwc_io IO031956 21.6000 88.5000 -1 21.6000 88.5000 TC 65 21.5781 88.5632 3 2 290
1956150N22090 1956 41 NI BB NOT_NAMED 1956-05-30 03:00:00 TS 21.6050 88.4850 main 0 0 P________PO___ IO031956 21.6075 88.4775 -1 21.6075 88.4775 TC 65 21.6000 88.5000 4 0 284
1956150N22090 1956 41 NI BB NOT_NAMED 1956-05-30 06:00:00 TS 21.6024 88.4904 main 0 0 O________OP___ jtwc_io IO031956 21.6000 88.5000 -1 21.6000 88.5000 TC 65 21.6072 88.4712 4 0 0
1956150N22090 1956 41 NI BB NOT_NAMED 1956-05-30 09:00:00 TS 21.6025 88.4900 main 0 0 P________PP___ IO031956 21.6000 88.5000 -1 21.6000 88.5000 TC 65 21.6075 88.4700 4 0 0
1956150N22090 1956 41 NI BB NOT_NAMED 1956-05-30 12:00:00 TS 21.6013 88.4946 main 0 0 O________OP___ jtwc_io IO031956 21.6000 88.5000 -1 21.6000 88.5000 TC 65 21.6040 88.4837 4 0 0
1956150N22090 1956 41 NI BB NOT_NAMED 1956-05-30 15:00:00 TS 21.6000 88.5000 main 0 0 P________PO___ IO031956 21.6000 88.5000 -1 21.6000 88.5000 TC 65 21.6000 88.5000 4 0 0
1956150N22090 1956 41 NI BB NOT_NAMED 1956-05-30 18:00:00 TS 21.5973 88.5068 main 0 0 O________OP___ jtwc_io IO031956 21.6000 88.5000 -1 21.6000 88.5000 TC 65 21.5918 88.5203 4 0 0
1956150N22090 1956 41 NI BB NOT_NAMED 1956-05-30 21:00:00 TS 21.5950 88.5175 main 0 0 P________PP___ IO031956 21.6000 88.5075 -1 21.6000 88.5075 TC 65 21.5849 88.5374 4 0 0
1956150N22090 1956 41 NI BB NOT_NAMED 1956-05-31 00:00:00 TS 21.5952 88.5120 main 0 0 O________OP___ jtwc_io IO031956 21.6000 88.5000 -1 21.6000 88.5000 TC 65 21.5856 88.5359 4 0 270
1956150N22090 1956 41 NI BB NOT_NAMED 1956-05-31 03:00:00 TS 21.5950 88.4817 main 0 0 P________PO___ IO031956 21.5925 88.4725 -1 21.5925 88.4725 TC 65 21.6000 88.5000 4 1 278
1956150N22090 1956 41 NI BB NOT_NAMED 1956-05-31 06:00:00 TS 21.6092 88.4023 main 0 0 O________OP___ jtwc_io IO031956 21.6000 88.4000 -1 21.6000 88.4000 TC 65 21.6276 88.4069 4 2 284
1956150N22090 1956 41 NI BB NOT_NAMED 1956-05-31 09:00:00 TS 21.6467 88.2650 main 0 0 P________PP___ IO031956 21.6350 88.2575 -1 21.6350 88.2575 TC 65 21.6701 88.2800 4 3 291
1956150N22090 1956 41 NI BB NOT_NAMED 1956-05-31 12:00:00 TS 21.7092 88.1127 main 10 10 O________OP___ jtwc_io IO031956 21.7000 88.1000 -1 21.7000 88.1000 TC 65 21.7276 88.1381 4 3 301
1956150N22090 1956 41 NI BB NOT_NAMED 1956-05-31 15:00:00 TS 21.7950 87.9950 main 10 0 P________PO___ IO031956 21.7925 87.9925 -1 21.7925 87.9925 TC 50 21.8000 88.0000 4 3 313
1956150N22090 1956 41 NI BB NOT_NAMED 1956-05-31 18:00:00 TS 21.8925 87.8936 main 0 0 O________OP___ jtwc_io IO031956 21.9000 87.9000 -1 21.9000 87.9000 TC 35 21.8775 87.8807 4 3 316
1956150N22090 1956 41 NI BB NOT_NAMED 1956-05-31 21:00:00 TS 21.9900 87.7900 main 0 0 P________PP___ IO031956 22.0000 87.8000 -1 22.0000 87.8000 TC 35 21.9700 87.7701 4 3 317
1956150N22090 1956 41 NI BB NOT_NAMED 1956-06-01 00:00:00 TS 22.0925 87.6915 main 0 0 O________OP___ jtwc_io IO031956 22.1000 87.7000 -1 22.1000 87.7000 TC 35 22.0775 87.6744 4 3 317
1956150N22090 1956 41 NI BB NOT_NAMED 1956-06-01 03:00:00 TS 22.1900 87.5900 main 0 0 P________PO___ IO031956 22.1850 87.5850 -1 22.1850 87.5850 TC 35 22.2000 87.6000 2 3 323
1956150N22090 1956 41 NI BB NOT_NAMED 1956-06-01 06:00:00 TS 22.3146 87.5138 main 0 0 O________OP___ jtwc_io IO031956 22.3000 87.5000 -1 22.3000 87.5000 TC 35 22.3437 87.5413 2 3 345
1956150N22090 1956 41 NI BB NOT_NAMED 1956-06-01 09:00:00 TS 22.5000 87.4916 main 0 0 P________PP___ IO031956 22.5000 87.4850 -1 22.5000 87.4850 TC 35 22.5000 87.5050 2 4 358
1956150N22090 1956 41 NI BB NOT_NAMED 1956-06-01 12:00:00 TS 22.6854 87.4971 main 0 0 O________OP___ jtwc_io IO031956 22.7000 87.5000 -1 22.7000 87.5000 TC 35 22.6562 87.4913 2 3 0
1956150N22090 1956 41 NI BB NOT_NAMED 1956-06-01 15:00:00 TS 22.8100 87.5000 main 0 0 P________PO___ IO031956 22.8150 87.5000 -1 22.8150 87.5000 TC 35 22.8000 87.5000 3 2 0
1956150N22090 1956 41 NI BB NOT_NAMED 1956-06-01 18:00:00 TS 22.9034 87.4987 main 0 0 O________OP___ jtwc_io IO031956 22.9000 87.5000 -1 22.9000 87.5000 TC 35 22.9102 87.4961 3 2 353
1956150N22090 1956 41 NI BB NOT_NAMED 1956-06-01 21:00:00 TS 23.0024 87.4860 main 0 0 P________PP___ IO031956 23.0000 87.4701 -1 23.0000 87.4701 TC 30 23.0072 87.5178 3 2 6
1956150N22090 1956 41 NI BB NOT_NAMED 1956-06-02 00:00:00 TS 23.1002 87.5269 main 0 0 O________OP___ jtwc_io IO031956 23.1000 87.5000 -1 23.1000 87.5000 TC 25 23.1007 87.5806 3 3 42
1956150N22090 1956 41 NI BB NOT_NAMED 1956-06-02 03:00:00 TS 23.1950 87.6750 main 0 0 P________PO___ IO031956 23.1925 87.6625 -1 23.1925 87.6625 TC 25 23.2000 87.7000 1 4 59
1956150N22090 1956 41 NI BB NOT_NAMED 1956-06-02 06:00:00 TS 23.3074 87.8974 main 0 0 O________OP___ jtwc_io IO031956 23.3000 87.9000 -1 23.3000 87.9000 TC 25 23.3221 87.8923 1 5 59
1956150N22090 1956 41 NI BB NOT_NAMED 1956-06-02 09:00:00 TS 23.4501 88.1415 main 0 0 P________PP___ IO031956 23.4500 88.1425 -1 23.4500 88.1425 TC 25 23.4503 88.1397 1 5 59
1956150N22090 1956 41 NI BB NOT_NAMED 1956-06-02 12:00:00 TS 23.5928 88.4058 main 0 0 O________OP___ jtwc_io IO031956 23.6000 88.4000 -1 23.6000 88.4000 TC 25 23.5783 88.4173 1 5 62
1956150N22090 1956 41 NI BB NOT_NAMED 1956-06-02 15:00:00 TS 23.7050 88.6667 main 0 0 P________PO___ IO031956 23.7075 88.6501 -1 23.7075 88.6501 TC 25 23.7000 88.7000 1 5 66
1956150N22090 1956 41 NI BB NOT_NAMED 1956-06-02 18:00:00 TS 23.8044 88.9270 main 0 0 O________OP___ jtwc_io IO031956 23.8000 88.9000 -1 23.8000 88.9000 TC 25 23.8109 88.9675 1 5 67
1956150N22090 1956 41 NI BB NOT_NAMED 1956-06-02 21:00:00 TS 23.9040 89.1799 main 0 0 P________PP___ IO031956 23.8976 89.1499 -1 23.8976 89.1499 TC 25 23.9125 89.2200 1 5 67
1956150N22090 1956 41 NI BB NOT_NAMED 1956-06-03 00:00:00 TS 24.0040 89.4312 main 0 0 O________OP___ jtwc_io IO031956 24.0000 89.4000 -1 24.0000 89.4000 TC 25 24.0079 89.4624 1 5 68
1956150N22090 1956 41 NI BB NOT_NAMED 1956-06-03 03:00:00 NR 24.1000 89.7000 main 0 __________O___ IO031956 -1 TC 24.1000 89.7000 1 5 69

About IBTrACS Database

This database is a web-friendly format of International Best Track Archive for Climate Stewardship (IBTrACS), a global best track data archive curated by NOAA dating back to 1842.

Updated: 2021-10-08